createdAt,value
2023-02-11T00:00:44.742Z,-0.26
2023-02-11T00:03:11.463Z,-0.31
2023-02-11T00:05:38.177Z,-0.70
2023-02-11T00:08:05.018Z,-0.71
2023-02-11T00:10:31.692Z,-0.76
2023-02-11T00:12:58.314Z,-0.91
2023-02-11T00:15:24.959Z,-1.16
2023-02-11T00:17:51.617Z,-0.78
2023-02-11T00:20:18.264Z,-0.99
2023-02-11T00:22:45.429Z,-1.20
2023-02-11T00:25:12.043Z,-1.00
2023-02-11T00:27:38.695Z,-0.84
2023-02-11T00:30:05.743Z,-0.61
2023-02-11T00:32:32.836Z,-1.04
2023-02-11T00:34:59.512Z,-0.90
2023-02-11T00:37:26.123Z,-0.57
2023-02-11T00:39:52.757Z,-0.28
2023-02-11T00:42:19.425Z,-0.01
2023-02-11T00:44:46.025Z,-0.20
2023-02-11T00:47:12.827Z,-0.46
2023-02-11T00:49:40.453Z,0.00
2023-02-11T00:52:07.576Z,-0.43
2023-02-11T00:54:34.265Z,-0.61
2023-02-11T00:57:01.156Z,-1.37
2023-02-11T00:59:28.112Z,-1.35
2023-02-11T01:01:54.807Z,-1.40
2023-02-11T01:04:21.538Z,-1.58
2023-02-11T01:06:48.141Z,-1.45
2023-02-11T01:09:16.115Z,-1.16
2023-02-11T01:11:42.757Z,-0.77
2023-02-11T01:14:09.480Z,-0.99
2023-02-11T01:16:36.215Z,-1.42
2023-02-11T01:19:03.030Z,-1.55
2023-02-11T01:21:29.720Z,-1.07
2023-02-11T01:23:56.324Z,-0.74
2023-02-11T01:26:22.929Z,-1.21
2023-02-11T01:28:49.574Z,-1.12
2023-02-11T01:31:16.230Z,-1.46
2023-02-11T01:33:43.050Z,-1.27
2023-02-11T01:36:11.311Z,-1.08
2023-02-11T01:38:38.232Z,-1.83
2023-02-11T01:41:08.365Z,-1.26
2023-02-11T01:43:55.047Z,-0.76
2023-02-11T01:46:38.014Z,-1.06
2023-02-11T01:49:09.596Z,-0.78
2023-02-11T01:51:47.358Z,-1.40
2023-02-11T01:54:36.958Z,-0.87
2023-02-11T01:57:24.957Z,-0.93
2023-02-11T02:00:09.854Z,-0.79
2023-02-11T02:03:02.416Z,-1.52
2023-02-11T02:05:35.778Z,-1.15
2023-02-11T02:08:29.557Z,-1.06
2023-02-11T02:10:58.526Z,-1.03
2023-02-11T02:13:25.973Z,-1.13
2023-02-11T02:15:55.198Z,-1.62
2023-02-11T02:18:32.423Z,-2.16
2023-02-11T02:21:08.134Z,-1.52
2023-02-11T02:23:59.456Z,-1.33
2023-02-11T02:26:57.147Z,-1.55
2023-02-11T02:29:43.943Z,-1.28
2023-02-11T02:32:31.743Z,-1.29
2023-02-11T02:35:13.602Z,-1.32
2023-02-11T02:37:51.226Z,-1.76
2023-02-11T02:40:28.632Z,-1.55
2023-02-11T02:42:56.394Z,-1.66
2023-02-11T02:45:23.131Z,-1.17
2023-02-11T02:47:49.756Z,-1.69
2023-02-11T02:50:20.881Z,-1.75
2023-02-11T02:53:04.030Z,-1.67
2023-02-11T02:55:42.969Z,-1.85
2023-02-11T02:58:40.612Z,-2.17
2023-02-11T03:01:19.020Z,-1.62
2023-02-11T03:04:14.665Z,-2.10
2023-02-11T03:06:41.212Z,-1.30
2023-02-11T03:09:16.307Z,-1.50
2023-02-11T03:11:43.004Z,-1.45
2023-02-11T03:14:14.919Z,-1.71
2023-02-11T03:16:43.671Z,-1.46
2023-02-11T03:19:24.592Z,-1.38
2023-02-11T03:21:53.415Z,-0.97
2023-02-11T03:24:30.784Z,-1.42
2023-02-11T03:27:02.075Z,-1.30
2023-02-11T03:29:54.299Z,-1.06
2023-02-11T03:32:38.698Z,-1.03
2023-02-11T03:35:20.232Z,-1.32
2023-02-11T03:37:52.070Z,-1.45
2023-02-11T03:40:26.334Z,-1.19
2023-02-11T03:43:21.183Z,-1.18
2023-02-11T03:45:50.991Z,-1.84
2023-02-11T03:48:23.741Z,-1.34
2023-02-11T03:50:52.404Z,-1.88
2023-02-11T03:53:21.916Z,-2.07
2023-02-11T03:55:52.457Z,-1.99
2023-02-11T03:58:19.555Z,-1.67
2023-02-11T04:00:46.407Z,-1.99
2023-02-11T04:03:13.806Z,-2.50
2023-02-11T04:05:40.946Z,-2.39
2023-02-11T04:08:07.941Z,-1.95
2023-02-11T04:10:34.793Z,-1.90
2023-02-11T04:13:01.913Z,-2.23
2023-02-11T04:15:28.563Z,-2.32
2023-02-11T04:17:55.135Z,-1.97
2023-02-11T04:20:21.893Z,-1.68
2023-02-11T04:22:48.505Z,-1.64
2023-02-11T04:25:15.107Z,-1.55
2023-02-11T04:27:41.756Z,-2.08
2023-02-11T04:30:09.628Z,-2.69
2023-02-11T04:32:36.333Z,-2.45
2023-02-11T04:35:03.621Z,-1.76
2023-02-11T04:37:30.354Z,-1.83
2023-02-11T04:39:57.038Z,-1.73
2023-02-11T04:42:24.475Z,-1.80
2023-02-11T04:44:51.139Z,-1.15
2023-02-11T04:47:17.828Z,-0.83
2023-02-11T04:49:44.432Z,-1.51
2023-02-11T04:52:11.183Z,-1.82
2023-02-11T04:54:37.902Z,-1.80
2023-02-11T04:57:04.556Z,-1.62
2023-02-11T04:59:31.181Z,-1.56
2023-02-11T05:01:58.000Z,-1.45
2023-02-11T05:04:24.962Z,-1.71
2023-02-11T05:06:51.645Z,-1.68
2023-02-11T05:09:18.496Z,-1.99
2023-02-11T05:11:45.102Z,-2.20
2023-02-11T05:14:11.731Z,-2.07
2023-02-11T05:16:38.445Z,-2.26
2023-02-11T05:19:05.348Z,-1.76
2023-02-11T05:21:32.037Z,-1.64
2023-02-11T05:23:58.796Z,-2.18
2023-02-11T05:26:25.754Z,-2.16
2023-02-11T05:28:52.553Z,-2.40
2023-02-11T05:31:19.251Z,-2.56
2023-02-11T05:33:46.085Z,-2.61
2023-02-11T05:36:13.682Z,-2.33
2023-02-11T05:38:40.802Z,-1.91
2023-02-11T05:41:07.612Z,-1.89
2023-02-11T05:43:35.475Z,-2.17
2023-02-11T05:46:03.619Z,-2.09
2023-02-11T05:48:30.964Z,-1.79
2023-02-11T05:50:57.833Z,-1.70
2023-02-11T05:53:24.452Z,-1.62
2023-02-11T05:55:51.578Z,-1.47
2023-02-11T05:58:18.459Z,-1.69
2023-02-11T06:00:45.117Z,-2.07
2023-02-11T06:03:11.784Z,-1.95
2023-02-11T06:05:39.476Z,-1.94
2023-02-11T06:08:06.561Z,-1.92
2023-02-11T06:10:33.282Z,-2.02
2023-02-11T06:12:59.862Z,-2.53
2023-02-11T06:15:26.566Z,-2.50
2023-02-11T06:17:53.407Z,-2.82
2023-02-11T06:20:20.260Z,-2.27
2023-02-11T06:22:47.140Z,-2.13
2023-02-11T06:25:14.587Z,-1.77
2023-02-11T06:27:41.283Z,-1.97
2023-02-11T06:30:08.901Z,-2.07
2023-02-11T06:32:43.741Z,-1.84
2023-02-11T06:35:12.589Z,-1.66
2023-02-11T06:37:40.176Z,-1.30
2023-02-11T06:40:07.659Z,-1.46
2023-02-11T06:42:36.228Z,-2.07
2023-02-11T06:45:03.470Z,-1.89
2023-02-11T06:47:30.138Z,-2.00
2023-02-11T06:49:56.776Z,-2.08
2023-02-11T06:52:23.419Z,-1.64
2023-02-11T06:54:49.969Z,-1.28
2023-02-11T06:57:16.601Z,-1.13
2023-02-11T06:59:43.430Z,-1.47
2023-02-11T07:02:10.976Z,-1.53
2023-02-11T07:04:38.100Z,-1.60
2023-02-11T07:07:04.775Z,-1.75
2023-02-11T07:09:31.357Z,-1.85
2023-02-11T07:11:58.105Z,-1.25
2023-02-11T07:14:24.786Z,-1.15
2023-02-11T07:16:51.490Z,-0.63
2023-02-11T07:19:18.141Z,-0.54
2023-02-11T07:21:44.721Z,-1.11
2023-02-11T07:24:11.645Z,-0.95
2023-02-11T07:26:38.766Z,-0.95
2023-02-11T07:29:05.625Z,-1.00
2023-02-11T07:31:33.073Z,-0.85
2023-02-11T07:34:01.853Z,-0.83
2023-02-11T07:36:30.464Z,-0.83
2023-02-11T07:38:57.206Z,-0.83
2023-02-11T07:41:25.333Z,-0.45
2023-02-11T07:43:52.222Z,-1.02
2023-02-11T07:46:26.325Z,-1.13
2023-02-11T07:48:53.782Z,-1.06
2023-02-11T07:51:26.533Z,-0.52
2023-02-11T07:53:53.795Z,-0.59
2023-02-11T07:56:21.750Z,-0.51
2023-02-11T07:58:48.592Z,-0.40
2023-02-11T08:01:25.893Z,-0.70
2023-02-11T08:03:53.087Z,-0.64
2023-02-11T08:06:21.719Z,-0.43
2023-02-11T08:08:49.512Z,-0.86
2023-02-11T08:11:28.216Z,-1.17
2023-02-11T08:13:56.987Z,-1.01
2023-02-11T08:16:35.634Z,-1.06
2023-02-11T08:19:07.269Z,-1.24
2023-02-11T08:21:33.975Z,-1.04
2023-02-11T08:24:01.678Z,-1.40
2023-02-11T08:26:29.902Z,-1.49
2023-02-11T08:28:57.602Z,-1.16
2023-02-11T08:31:27.515Z,-0.85
2023-02-11T08:33:55.050Z,-0.60
2023-02-11T08:36:23.777Z,-1.32
2023-02-11T08:38:50.456Z,-0.70
2023-02-11T08:41:18.035Z,-0.99
2023-02-11T08:43:46.204Z,-0.83
2023-02-11T08:46:15.784Z,-0.26
2023-02-11T08:48:43.275Z,-0.60
2023-02-11T08:51:31.610Z,-0.95
2023-02-11T08:53:59.272Z,-0.64
2023-02-11T08:56:26.224Z,-0.20
2023-02-11T08:58:53.786Z,-0.10
2023-02-11T09:01:24.453Z,-0.47
2023-02-11T09:03:51.535Z,0.14
2023-02-11T09:06:18.757Z,0.31
2023-02-11T09:08:49.428Z,0.45
2023-02-11T09:11:18.447Z,0.13
2023-02-11T09:13:45.450Z,0.04
2023-02-11T09:16:23.338Z,0.36
2023-02-11T09:18:50.862Z,0.82
2023-02-11T09:21:19.326Z,0.89
2023-02-11T09:23:47.957Z,0.41
2023-02-11T09:26:17.068Z,0.40
2023-02-11T09:28:43.738Z,1.08
2023-02-11T09:31:12.904Z,0.35
2023-02-11T09:33:42.277Z,0.63
2023-02-11T09:36:09.328Z,0.83
2023-02-11T09:38:35.925Z,0.88
2023-02-11T09:41:07.608Z,0.47
2023-02-11T09:43:45.110Z,0.66
2023-02-11T09:46:17.252Z,0.92
2023-02-11T09:48:46.700Z,0.84
2023-02-11T09:51:20.843Z,0.85
2023-02-11T09:53:57.656Z,0.39
2023-02-11T09:56:26.831Z,0.64
2023-02-11T09:58:53.652Z,0.76
2023-02-11T10:01:38.054Z,0.88
2023-02-11T10:04:07.771Z,0.63
2023-02-11T10:06:46.890Z,0.81
2023-02-11T10:09:26.167Z,1.16
2023-02-11T10:12:11.339Z,1.13
2023-02-11T10:15:02.842Z,1.40
2023-02-11T10:18:04.534Z,1.97
2023-02-11T10:20:34.147Z,1.91
2023-02-11T10:23:08.577Z,1.84
2023-02-11T10:25:45.215Z,2.05
2023-02-11T10:28:15.834Z,2.24
2023-02-11T10:31:07.081Z,1.96
2023-02-11T10:33:40.046Z,1.93
2023-02-11T10:36:07.183Z,1.82
2023-02-11T10:38:33.961Z,2.15
2023-02-11T10:41:00.618Z,2.21
2023-02-11T10:43:30.830Z,2.37
2023-02-11T10:45:58.888Z,2.50
2023-02-11T10:48:49.522Z,2.13
2023-02-11T10:51:28.386Z,1.95
2023-02-11T10:54:04.211Z,1.88
2023-02-11T10:56:34.363Z,2.04
2023-02-11T10:59:34.609Z,2.28
2023-02-11T11:02:06.114Z,2.47
2023-02-11T11:04:42.544Z,2.42
2023-02-11T11:07:18.282Z,2.32
2023-02-11T11:09:48.224Z,2.57
2023-02-11T11:12:58.367Z,2.62
2023-02-11T11:15:31.162Z,2.91
2023-02-11T11:18:23.279Z,2.44
2023-02-11T11:20:59.701Z,2.97
2023-02-11T11:23:29.554Z,2.82
2023-02-11T11:26:16.291Z,2.54
2023-02-11T11:29:08.138Z,2.77
2023-02-11T11:31:45.146Z,2.81
2023-02-11T11:34:48.490Z,2.66
2023-02-11T11:37:21.499Z,3.09
2023-02-11T11:40:13.885Z,3.01
2023-02-11T11:42:41.082Z,3.40
2023-02-11T11:45:19.733Z,3.45
2023-02-11T11:48:10.952Z,3.72
2023-02-11T11:50:43.552Z,2.81
2023-02-11T11:53:23.467Z,3.38
2023-02-11T11:56:09.291Z,3.84
2023-02-11T11:58:35.959Z,3.38
2023-02-11T12:01:11.295Z,3.60
2023-02-11T12:04:25.615Z,3.68
2023-02-11T12:07:19.888Z,3.74
2023-02-11T12:09:55.577Z,3.22
2023-02-11T12:13:03.161Z,2.81
2023-02-11T12:15:36.678Z,2.37
2023-02-11T12:18:06.121Z,2.75
2023-02-11T12:20:58.751Z,3.18
2023-02-11T12:23:59.188Z,3.73
2023-02-11T12:27:10.663Z,3.43
2023-02-11T12:30:24.835Z,3.75
2023-02-11T12:33:21.060Z,3.49
2023-02-11T12:35:56.131Z,2.98
2023-02-11T12:42:35.486Z,4.01
2023-02-11T12:45:16.729Z,3.32
2023-02-11T12:48:01.006Z,3.92
2023-02-11T12:50:36.825Z,4.42
2023-02-11T12:53:41.952Z,4.13
2023-02-11T12:56:14.959Z,4.37
2023-02-11T12:58:45.722Z,4.18
2023-02-11T13:01:27.915Z,4.48
2023-02-11T13:04:48.195Z,4.71
2023-02-11T13:07:21.636Z,4.39
2023-02-11T13:10:02.131Z,4.12
2023-02-11T13:12:50.834Z,4.25
2023-02-11T13:15:17.717Z,4.38
2023-02-11T13:17:53.851Z,4.15
2023-02-11T13:20:32.532Z,4.27
2023-02-11T13:23:12.741Z,3.82
2023-02-11T13:25:53.224Z,3.93
2023-02-11T13:28:56.440Z,4.30
2023-02-11T13:31:27.100Z,4.25
2023-02-11T13:33:53.921Z,4.34
2023-02-11T13:36:33.190Z,4.32
2023-02-11T13:39:03.774Z,4.27
2023-02-11T13:41:34.553Z,4.33
2023-02-11T13:44:10.938Z,4.21
2023-02-11T13:46:59.630Z,4.83
2023-02-11T13:49:33.318Z,4.42
2023-02-11T13:52:03.330Z,3.76
2023-02-11T13:54:34.111Z,4.46
2023-02-11T13:57:26.187Z,4.50
2023-02-11T13:59:58.936Z,4.07
2023-02-11T14:02:47.133Z,4.17
2023-02-11T14:05:41.566Z,3.84
2023-02-11T14:08:29.846Z,3.97
2023-02-11T14:11:08.437Z,4.37
2023-02-11T14:13:37.133Z,4.90
2023-02-11T14:16:10.243Z,4.55
2023-02-11T14:18:39.351Z,4.58
2023-02-11T14:21:23.095Z,4.59
2023-02-11T14:23:53.346Z,4.07
2023-02-11T14:26:20.136Z,4.17
2023-02-11T14:29:19.980Z,3.82
2023-02-11T14:32:25.092Z,3.90
2023-02-11T14:35:18.352Z,4.03
2023-02-11T14:38:07.466Z,3.88
2023-02-11T14:40:49.342Z,3.97
2023-02-11T14:43:24.574Z,4.07
2023-02-11T14:45:55.864Z,3.89
2023-02-11T14:48:29.792Z,4.10
2023-02-11T14:51:13.676Z,4.21
2023-02-11T14:53:45.761Z,4.15
2023-02-11T14:56:27.934Z,4.07
2023-02-11T14:58:55.751Z,4.36
2023-02-11T15:01:33.952Z,4.15
2023-02-11T15:04:05.394Z,4.29
2023-02-11T15:06:41.268Z,4.37
2023-02-11T15:09:25.596Z,4.25
2023-02-11T15:11:52.794Z,4.25
2023-02-11T15:14:24.517Z,4.20
2023-02-11T15:16:53.871Z,4.27
2023-02-11T15:19:26.799Z,4.43
2023-02-11T15:21:54.200Z,4.11
2023-02-11T15:24:32.218Z,4.36
2023-02-11T15:27:00.321Z,4.71
2023-02-11T15:29:42.311Z,4.60
2023-02-11T15:32:23.312Z,4.33
2023-02-11T15:34:52.798Z,4.62
2023-02-11T15:37:30.196Z,4.24
2023-02-11T15:40:15.155Z,4.42
2023-02-11T15:42:56.181Z,3.79
2023-02-11T15:45:46.082Z,4.04
2023-02-11T15:48:16.649Z,3.94
2023-02-11T15:50:51.369Z,3.71
2023-02-11T15:53:23.319Z,3.80
2023-02-11T15:55:52.986Z,3.83
2023-02-11T15:58:25.205Z,3.95
2023-02-11T16:00:59.944Z,3.61
2023-02-11T16:03:32.511Z,3.64
2023-02-11T16:06:17.612Z,3.62
2023-02-11T16:09:01.043Z,3.35
2023-02-11T16:11:33.329Z,3.31
2023-02-11T16:14:01.997Z,3.66
2023-02-11T16:16:34.668Z,3.22
2023-02-11T16:19:05.179Z,3.32
2023-02-11T16:21:36.310Z,3.45
2023-02-11T16:24:03.965Z,3.22
2023-02-11T16:26:30.556Z,3.29
2023-02-11T16:29:18.689Z,2.83
2023-02-11T16:31:47.636Z,2.98
2023-02-11T16:34:20.921Z,2.57
2023-02-11T16:36:48.742Z,2.76
2023-02-11T16:39:16.823Z,2.65
2023-02-11T16:41:43.643Z,2.66
2023-02-11T16:44:10.312Z,2.64
2023-02-11T16:46:37.644Z,2.59
2023-02-11T16:49:27.415Z,2.62
2023-02-11T16:51:58.532Z,2.76
2023-02-11T16:54:25.149Z,2.86
2023-02-11T16:56:51.880Z,2.99
2023-02-11T16:59:18.517Z,2.93
2023-02-11T17:01:45.801Z,2.90
2023-02-11T17:04:33.686Z,1.94
2023-02-11T17:07:00.327Z,2.14
2023-02-11T17:09:30.531Z,2.35
2023-02-11T17:11:57.839Z,2.15
2023-02-11T17:14:24.663Z,2.17
2023-02-11T17:16:51.742Z,2.50
2023-02-11T17:19:21.121Z,2.76
2023-02-11T17:21:51.259Z,2.79
2023-02-11T17:24:19.451Z,2.09
2023-02-11T17:26:46.665Z,2.42
2023-02-11T17:29:19.396Z,2.17
2023-02-11T17:31:46.192Z,2.39
2023-02-11T17:34:13.048Z,2.49
2023-02-11T17:36:41.466Z,2.35
2023-02-11T17:39:08.479Z,2.21
2023-02-11T17:41:37.145Z,2.38
2023-02-11T17:44:04.585Z,2.12
2023-02-11T17:46:32.282Z,2.39
2023-02-11T17:48:59.690Z,2.67
2023-02-11T17:51:35.023Z,2.42
2023-02-11T17:54:14.298Z,2.31
2023-02-11T17:56:41.915Z,2.10
2023-02-11T17:59:10.357Z,2.42
2023-02-11T18:01:38.714Z,2.32
2023-02-11T18:04:06.773Z,2.34
2023-02-11T18:06:34.187Z,2.80
2023-02-11T18:09:04.192Z,2.12
2023-02-11T18:11:33.323Z,2.09
2023-02-11T18:14:01.697Z,2.20
2023-02-11T18:16:30.078Z,2.15
2023-02-11T18:19:03.568Z,1.90
2023-02-11T18:21:30.502Z,2.16
2023-02-11T18:24:06.426Z,2.85
2023-02-11T18:26:34.415Z,2.52
2023-02-11T18:29:01.366Z,2.34
2023-02-11T18:31:29.066Z,2.31
2023-02-11T18:33:55.935Z,2.35
2023-02-11T18:36:25.432Z,2.00
2023-02-11T18:38:53.713Z,2.90
2023-02-11T18:41:20.843Z,3.05
2023-02-11T18:43:47.502Z,2.79
2023-02-11T18:46:15.190Z,2.24
2023-02-11T18:48:42.310Z,2.51
2023-02-11T18:51:11.399Z,2.55
2023-02-11T18:53:38.082Z,2.61
2023-02-11T18:56:13.886Z,1.97
2023-02-11T18:58:40.786Z,1.83
2023-02-11T19:01:11.739Z,2.41
2023-02-11T19:03:38.398Z,2.60
2023-02-11T19:06:05.319Z,3.00
2023-02-11T19:08:32.113Z,2.77
2023-02-11T19:10:58.848Z,2.84
2023-02-11T19:13:25.817Z,2.49
2023-02-11T19:15:52.653Z,1.71
2023-02-11T19:18:19.432Z,2.50
2023-02-11T19:20:46.163Z,2.68
2023-02-11T19:23:12.739Z,2.92
2023-02-11T19:25:46.620Z,2.65
2023-02-11T19:28:13.931Z,2.97
2023-02-11T19:30:41.028Z,2.79
2023-02-11T19:33:10.046Z,2.62
2023-02-11T19:35:36.886Z,2.70
2023-02-11T19:38:06.354Z,2.73
2023-02-11T19:40:33.267Z,2.88
2023-02-11T19:43:00.008Z,2.80
2023-02-11T19:45:27.092Z,2.38
2023-02-11T19:47:57.848Z,2.58
2023-02-11T19:50:24.647Z,2.66
2023-02-11T19:52:51.299Z,2.97
2023-02-11T19:55:20.318Z,2.80
2023-02-11T19:57:47.025Z,3.20
2023-02-11T20:00:14.232Z,3.17
2023-02-11T20:02:40.900Z,2.93
2023-02-11T20:05:07.925Z,2.47
2023-02-11T20:07:35.289Z,2.87
2023-02-11T20:10:02.998Z,2.68
2023-02-11T20:12:29.649Z,3.04
2023-02-11T20:14:56.348Z,2.49
2023-02-11T20:17:23.035Z,2.72
2023-02-11T20:19:49.845Z,2.59
2023-02-11T20:22:16.472Z,2.25
2023-02-11T20:24:43.157Z,1.83
2023-02-11T20:27:11.532Z,2.17
2023-02-11T20:29:38.867Z,2.25
2023-02-11T20:32:06.657Z,2.07
2023-02-11T20:34:34.441Z,2.15
2023-02-11T20:37:02.298Z,2.82
2023-02-11T20:39:29.021Z,2.99
2023-02-11T20:41:57.665Z,3.24
2023-02-11T20:44:24.442Z,3.21
2023-02-11T20:46:51.722Z,2.12
2023-02-11T20:49:21.044Z,2.41
2023-02-11T20:51:48.567Z,2.97
2023-02-11T20:54:17.870Z,2.59
2023-02-11T20:56:47.962Z,2.90
2023-02-11T20:59:16.664Z,2.55
2023-02-11T21:01:46.368Z,2.58
2023-02-11T21:04:17.305Z,2.55
2023-02-11T21:06:56.299Z,2.50
2023-02-11T21:09:25.457Z,2.76
2023-02-11T21:11:53.576Z,2.79
2023-02-11T21:14:22.586Z,2.72
2023-02-11T21:16:49.781Z,2.67
2023-02-11T21:19:16.394Z,2.65
2023-02-11T21:21:43.242Z,3.13
2023-02-11T21:24:12.871Z,3.32
2023-02-11T21:26:40.563Z,3.13
2023-02-11T21:29:08.631Z,3.07
2023-02-11T21:31:36.529Z,3.01
2023-02-11T21:34:04.288Z,2.84
2023-02-11T21:36:30.997Z,2.44
2023-02-11T21:39:04.395Z,2.41
2023-02-11T21:41:31.034Z,2.62
2023-02-11T21:43:57.719Z,2.65
2023-02-11T21:46:24.926Z,2.55
2023-02-11T21:48:52.311Z,3.06
2023-02-11T21:51:21.696Z,2.65
2023-02-11T21:53:48.494Z,2.70
2023-02-11T21:56:17.678Z,3.14
2023-02-11T21:58:45.749Z,3.26
2023-02-11T22:01:20.710Z,3.31
2023-02-11T22:03:47.918Z,2.91
2023-02-11T22:06:17.836Z,2.60
2023-02-11T22:08:44.531Z,3.24
2023-02-11T22:11:12.965Z,3.11
2023-02-11T22:13:40.630Z,2.73
2023-02-11T22:16:11.563Z,2.56
2023-02-11T22:18:39.042Z,3.15
2023-02-11T22:21:12.273Z,3.02
2023-02-11T22:23:39.694Z,3.07
2023-02-11T22:26:09.609Z,2.93
2023-02-11T22:28:38.869Z,3.44
2023-02-11T22:31:06.178Z,3.22
2023-02-11T22:33:33.105Z,2.67
2023-02-11T22:36:02.582Z,2.74
2023-02-11T22:38:31.231Z,3.38
2023-02-11T22:40:59.190Z,3.04
2023-02-11T22:43:26.934Z,3.01
2023-02-11T22:45:56.450Z,2.82
2023-02-11T22:48:23.387Z,2.61
2023-02-11T22:50:50.064Z,2.59
2023-02-11T22:53:16.715Z,2.55
2023-02-11T22:55:43.582Z,2.61
2023-02-11T22:58:10.809Z,2.49
2023-02-11T23:00:41.770Z,2.73
2023-02-11T23:03:10.230Z,2.51
2023-02-11T23:05:43.121Z,2.65
2023-02-11T23:08:11.250Z,2.91
2023-02-11T23:10:39.784Z,2.58
2023-02-11T23:13:07.460Z,2.38
2023-02-11T23:15:34.467Z,2.56
2023-02-11T23:18:01.145Z,2.31
2023-02-11T23:20:27.798Z,2.22
2023-02-11T23:22:54.413Z,2.20
2023-02-11T23:25:21.192Z,2.39
2023-02-11T23:27:47.889Z,2.87
2023-02-11T23:30:14.788Z,2.78
2023-02-11T23:32:41.438Z,3.03
2023-02-11T23:35:08.302Z,2.96
2023-02-11T23:37:35.137Z,2.90
2023-02-11T23:40:02.223Z,2.51
2023-02-11T23:42:29.235Z,2.54
2023-02-11T23:44:55.937Z,2.18
2023-02-11T23:47:22.580Z,2.17
2023-02-11T23:49:49.171Z,2.48
2023-02-11T23:52:15.859Z,2.36
2023-02-11T23:54:43.428Z,2.60
2023-02-11T23:57:10.132Z,2.84
2023-02-11T23:59:36.905Z,2.34
